Flugplatz Möckmühl-Korb (UL)

Hier findest Du alle Informationen zum Flugplatz Möckmühl-Korb (UL).

Informationen für Piloten zum Flugplatz Möckmühl-Korb

Hier findest Du alle relevanten Informationen, die Du als Pilot benötigst, um Möckmühl-Korb anzufliegen.

Flugplatz: Möckmühl-Korb ICAO-Code: UL Flugplatz
Frequenz Turm: 129.975 Mhz GAFOR Gebiet: -
Frequenz Ground: 129.975 Mhz Mogas: nein
Platzrunde: N 2112 ft Landegebühr: -
Platzhöhe: Sunrise: 07:07 Uhr UTC
Pisten: 08/26 - 540 m x 30 m, GRAS Sunset: 15:57 Uhr UTC

Mitglieder, die in Möckmühl-Korb fliegen

Flugwetter am Flugplatz Möckmühl-Korb

Die METAR Information stammen aus EDFM (65.59 km entfernt).

METAR Code:
2022/01/07 16:20
EDFM 071620Z 19007KT 9999 FEW010 BKN019 BKN034 03/01 Q1015

Flugschulen am Flugplatz Möckmühl-Korb

Am Flugplatz Möckmühl-Korb gibt es leider keine Flugschule.

Benachbarte Flugplätze und Flugschulen

Es gibt 20 weitere Flugplätze in einem Umkreis von 50 km um den Flugplatz Möckmühl-Korb.

Jetzt anmelden

Passwort vergessen

Umfrage Archiv

Welche Navigations-App nutzt Ihr im Cockpit

SkyDemon
50.6 %
VFRnav
19.4 %
Ich nutze eine andere App
17.8 %
EasyVFR
5.3 %
Ich nutze gar keine App
5.3 %
ForeFlight
1.6 %
Stimmen: 247 | Diskussion (45)
Anzeige: Roland Aircraft
Statistik Alle Mitglieder

Aktuell sind 67 Besucher online, davon 6 Mitglieder und 61 Gäste.


Mitglieder online:
sukram  francop  pedrob  cyrus2316  FMBNK  Angel 

Anzeige: Pocket FMS